sensor_id;sensor_type;location;lat;lon;timestamp;P1;durP1;ratioP1;P2;durP2;ratioP2
37483;SDS011;23337;52.212;9.926;2022-11-15T00:00:23;8.27;;;7.10;;
37483;SDS011;23337;52.212;9.926;2022-11-15T00:02:49;8.93;;;8.00;;
37483;SDS011;23337;52.212;9.926;2022-11-15T00:05:15;9.03;;;7.00;;
37483;SDS011;23337;52.212;9.926;2022-11-15T00:07:41;9.23;;;8.20;;
37483;SDS011;23337;52.212;9.926;2022-11-15T00:10:07;9.00;;;6.90;;
37483;SDS011;23337;52.212;9.926;2022-11-15T00:12:33;8.50;;;7.70;;
37483;SDS011;23337;52.212;9.926;2022-11-15T00:14:59;8.60;;;7.50;;
37483;SDS011;23337;52.212;9.926;2022-11-15T00:17:25;11.07;;;7.40;;
37483;SDS011;23337;52.212;9.926;2022-11-15T00:19:51;9.70;;;7.10;;
37483;SDS011;23337;52.212;9.926;2022-11-15T00:22:17;9.30;;;7.10;;
37483;SDS011;23337;52.212;9.926;2022-11-15T00:24:43;10.00;;;7.50;;
37483;SDS011;23337;52.212;9.926;2022-11-15T00:27:09;8.27;;;7.07;;
37483;SDS011;23337;52.212;9.926;2022-11-15T00:29:35;8.20;;;7.40;;
37483;SDS011;23337;52.212;9.926;2022-11-15T00:32:03;8.57;;;7.00;;
37483;SDS011;23337;52.212;9.926;2022-11-15T00:34:29;9.00;;;7.33;;
37483;SDS011;23337;52.212;9.926;2022-11-15T00:36:55;10.50;;;8.00;;
37483;SDS011;23337;52.212;9.926;2022-11-15T00:39:21;8.93;;;7.80;;
37483;SDS011;23337;52.212;9.926;2022-11-15T00:41:47;8.30;;;7.17;;
37483;SDS011;23337;52.212;9.926;2022-11-15T00:44:13;8.80;;;6.93;;
37483;SDS011;23337;52.212;9.926;2022-11-15T00:46:39;9.20;;;7.27;;
37483;SDS011;23337;52.212;9.926;2022-11-15T00:49:05;8.13;;;7.23;;
37483;SDS011;23337;52.212;9.926;2022-11-15T00:51:31;9.50;;;7.07;;
37483;SDS011;23337;52.212;9.926;2022-11-15T00:53:56;9.93;;;6.67;;
37483;SDS011;23337;52.212;9.926;2022-11-15T00:56:22;10.90;;;7.73;;
37483;SDS011;23337;52.212;9.926;2022-11-15T00:58:48;9.27;;;6.93;;
37483;SDS011;23337;52.212;9.926;2022-11-15T01:01:14;9.23;;;6.10;;
37483;SDS011;23337;52.212;9.926;2022-11-15T01:03:41;12.80;;;6.10;;
37483;SDS011;23337;52.212;9.926;2022-11-15T01:06:07;7.83;;;6.83;;
37483;SDS011;23337;52.212;9.926;2022-11-15T01:08:33;8.87;;;6.83;;
37483;SDS011;23337;52.212;9.926;2022-11-15T01:11:02;7.93;;;5.57;;
37483;SDS011;23337;52.212;9.926;2022-11-15T01:13:32;10.70;;;6.07;;
37483;SDS011;23337;52.212;9.926;2022-11-15T01:15:59;6.30;;;5.43;;
37483;SDS011;23337;52.212;9.926;2022-11-15T01:18:25;7.90;;;5.63;;
37483;SDS011;23337;52.212;9.926;2022-11-15T01:20:51;8.70;;;6.87;;
37483;SDS011;23337;52.212;9.926;2022-11-15T01:23:16;8.63;;;6.00;;
37483;SDS011;23337;52.212;9.926;2022-11-15T01:25:42;6.90;;;5.90;;
37483;SDS011;23337;52.212;9.926;2022-11-15T01:28:08;9.10;;;6.43;;
37483;SDS011;23337;52.212;9.926;2022-11-15T01:30:35;6.77;;;5.40;;
37483;SDS011;23337;52.212;9.926;2022-11-15T01:33:01;7.23;;;6.53;;
37483;SDS011;23337;52.212;9.926;2022-11-15T01:35:27;6.90;;;6.03;;
37483;SDS011;23337;52.212;9.926;2022-11-15T01:37:53;6.73;;;5.97;;
37483;SDS011;23337;52.212;9.926;2022-11-15T01:40:19;9.03;;;6.57;;
37483;SDS011;23337;52.212;9.926;2022-11-15T01:42:45;6.87;;;6.20;;
37483;SDS011;23337;52.212;9.926;2022-11-15T01:45:14;8.83;;;6.07;;
37483;SDS011;23337;52.212;9.926;2022-11-15T01:47:41;7.47;;;5.93;;
37483;SDS011;23337;52.212;9.926;2022-11-15T01:50:12;7.77;;;5.73;;
37483;SDS011;23337;52.212;9.926;2022-11-15T01:52:40;7.63;;;6.10;;
37483;SDS011;23337;52.212;9.926;2022-11-15T01:55:17;7.77;;;5.97;;
37483;SDS011;23337;52.212;9.926;2022-11-15T01:57:45;10.07;;;6.43;;
37483;SDS011;23337;52.212;9.926;2022-11-15T02:00:12;7.80;;;6.67;;
37483;SDS011;23337;52.212;9.926;2022-11-15T02:02:38;9.00;;;7.17;;
37483;SDS011;23337;52.212;9.926;2022-11-15T02:05:05;8.97;;;7.00;;
37483;SDS011;23337;52.212;9.926;2022-11-15T02:07:31;7.20;;;6.37;;
37483;SDS011;23337;52.212;9.926;2022-11-15T02:09:58;8.20;;;7.40;;
37483;SDS011;23337;52.212;9.926;2022-11-15T02:12:27;9.70;;;8.33;;
37483;SDS011;23337;52.212;9.926;2022-11-15T02:14:53;8.23;;;6.97;;
37483;SDS011;23337;52.212;9.926;2022-11-15T02:23:02;8.07;;;6.17;;
37483;SDS011;23337;52.212;9.926;2022-11-15T02:28:00;10.00;;;7.77;;
37483;SDS011;23337;52.212;9.926;2022-11-15T02:30:43;6.63;;;5.87;;
37483;SDS011;23337;52.212;9.926;2022-11-15T02:33:14;9.43;;;7.73;;
37483;SDS011;23337;52.212;9.926;2022-11-15T02:35:46;7.47;;;5.90;;
37483;SDS011;23337;52.212;9.926;2022-11-15T02:38:35;9.60;;;6.60;;
37483;SDS011;23337;52.212;9.926;2022-11-15T02:41:07;6.73;;;5.53;;
37483;SDS011;23337;52.212;9.926;2022-11-15T02:46:40;10.07;;;6.97;;
37483;SDS011;23337;52.212;9.926;2022-11-15T02:49:31;7.07;;;6.20;;
37483;SDS011;23337;52.212;9.926;2022-11-15T02:51:58;6.90;;;6.20;;
37483;SDS011;23337;52.212;9.926;2022-11-15T02:54:33;7.67;;;6.73;;
37483;SDS011;23337;52.212;9.926;2022-11-15T02:57:04;8.57;;;6.13;;
37483;SDS011;23337;52.212;9.926;2022-11-15T02:59:36;6.93;;;5.93;;
37483;SDS011;23337;52.212;9.926;2022-11-15T03:04:52;9.57;;;6.70;;
37483;SDS011;23337;52.212;9.926;2022-11-15T03:07:28;10.13;;;6.00;;
37483;SDS011;23337;52.212;9.926;2022-11-15T03:12:57;6.53;;;4.53;;
37483;SDS011;23337;52.212;9.926;2022-11-15T03:15:28;7.30;;;5.67;;
37483;SDS011;23337;52.212;9.926;2022-11-15T03:17:57;6.53;;;5.43;;
37483;SDS011;23337;52.212;9.926;2022-11-15T03:20:24;6.07;;;5.07;;
37483;SDS011;23337;52.212;9.926;2022-11-15T03:22:52;7.00;;;4.93;;
37483;SDS011;23337;52.212;9.926;2022-11-15T03:25:21;6.13;;;5.27;;
37483;SDS011;23337;52.212;9.926;2022-11-15T03:27:49;6.43;;;4.67;;
37483;SDS011;23337;52.212;9.926;2022-11-15T03:30:16;5.97;;;5.07;;
37483;SDS011;23337;52.212;9.926;2022-11-15T03:32:44;6.10;;;5.00;;
37483;SDS011;23337;52.212;9.926;2022-11-15T03:35:17;7.80;;;5.63;;
37483;SDS011;23337;52.212;9.926;2022-11-15T03:38:26;9.80;;;4.90;;
37483;SDS011;23337;52.212;9.926;2022-11-15T03:40:37;5.97;;;4.60;;
37483;SDS011;23337;52.212;9.926;2022-11-15T03:43:09;8.07;;;5.40;;
37483;SDS011;23337;52.212;9.926;2022-11-15T03:45:40;5.30;;;4.80;;
37483;SDS011;23337;52.212;9.926;2022-11-15T03:48:13;6.60;;;4.63;;
37483;SDS011;23337;52.212;9.926;2022-11-15T03:50:40;5.30;;;4.70;;
37483;SDS011;23337;52.212;9.926;2022-11-15T03:53:07;7.13;;;4.80;;
37483;SDS011;23337;52.212;9.926;2022-11-15T03:55:33;7.13;;;4.77;;
37483;SDS011;23337;52.212;9.926;2022-11-15T03:58:00;7.27;;;5.40;;
37483;SDS011;23337;52.212;9.926;2022-11-15T04:00:26;8.30;;;4.63;;
37483;SDS011;23337;52.212;9.926;2022-11-15T04:02:53;4.93;;;4.47;;
37483;SDS011;23337;52.212;9.926;2022-11-15T04:05:19;6.30;;;4.57;;
37483;SDS011;23337;52.212;9.926;2022-11-15T04:07:45;7.20;;;5.40;;
37483;SDS011;23337;52.212;9.926;2022-11-15T04:10:11;6.83;;;4.87;;
37483;SDS011;23337;52.212;9.926;2022-11-15T04:12:41;6.53;;;4.70;;
37483;SDS011;23337;52.212;9.926;2022-11-15T04:15:18;6.43;;;4.77;;
37483;SDS011;23337;52.212;9.926;2022-11-15T04:17:46;7.93;;;4.70;;
37483;SDS011;23337;52.212;9.926;2022-11-15T04:23:03;4.57;;;4.03;;
37483;SDS011;23337;52.212;9.926;2022-11-15T04:25:52;6.23;;;4.40;;
37483;SDS011;23337;52.212;9.926;2022-11-15T04:28:18;8.47;;;4.27;;
37483;SDS011;23337;52.212;9.926;2022-11-15T04:30:44;6.00;;;4.20;;
37483;SDS011;23337;52.212;9.926;2022-11-15T04:33:10;7.23;;;4.60;;
37483;SDS011;23337;52.212;9.926;2022-11-15T04:35:36;6.27;;;4.33;;
37483;SDS011;23337;52.212;9.926;2022-11-15T04:38:03;5.40;;;4.90;;
37483;SDS011;23337;52.212;9.926;2022-11-15T04:40:29;9.13;;;4.70;;
37483;SDS011;23337;52.212;9.926;2022-11-15T04:42:55;5.47;;;4.57;;
37483;SDS011;23337;52.212;9.926;2022-11-15T04:45:21;6.33;;;4.47;;
37483;SDS011;23337;52.212;9.926;2022-11-15T04:47:47;7.00;;;4.07;;
37483;SDS011;23337;52.212;9.926;2022-11-15T04:50:13;5.53;;;4.13;;
37483;SDS011;23337;52.212;9.926;2022-11-15T04:52:43;6.67;;;4.07;;
37483;SDS011;23337;52.212;9.926;2022-11-15T04:55:10;5.37;;;3.70;;
37483;SDS011;23337;52.212;9.926;2022-11-15T04:57:36;5.97;;;3.50;;
37483;SDS011;23337;52.212;9.926;2022-11-15T05:00:04;6.43;;;3.43;;
37483;SDS011;23337;52.212;9.926;2022-11-15T05:02:30;5.70;;;4.03;;
37483;SDS011;23337;52.212;9.926;2022-11-15T05:05:16;4.73;;;3.90;;
37483;SDS011;23337;52.212;9.926;2022-11-15T05:07:42;6.07;;;4.10;;
37483;SDS011;23337;52.212;9.926;2022-11-15T05:10:08;4.80;;;3.80;;
37483;SDS011;23337;52.212;9.926;2022-11-15T05:12:34;6.20;;;4.60;;
37483;SDS011;23337;52.212;9.926;2022-11-15T05:15:00;5.27;;;3.83;;
37483;SDS011;23337;52.212;9.926;2022-11-15T05:17:26;3.90;;;3.27;;
37483;SDS011;23337;52.212;9.926;2022-11-15T05:19:52;5.33;;;3.50;;
37483;SDS011;23337;52.212;9.926;2022-11-15T05:22:18;4.00;;;3.53;;
37483;SDS011;23337;52.212;9.926;2022-11-15T05:24:44;5.67;;;3.87;;
37483;SDS011;23337;52.212;9.926;2022-11-15T05:27:10;4.63;;;3.73;;
37483;SDS011;23337;52.212;9.926;2022-11-15T05:29:36;4.57;;;4.10;;
37483;SDS011;23337;52.212;9.926;2022-11-15T05:32:03;3.97;;;3.50;;
37483;SDS011;23337;52.212;9.926;2022-11-15T05:34:30;5.13;;;3.90;;
37483;SDS011;23337;52.212;9.926;2022-11-15T05:36:56;4.83;;;3.40;;
37483;SDS011;23337;52.212;9.926;2022-11-15T05:39:22;5.87;;;3.53;;
37483;SDS011;23337;52.212;9.926;2022-11-15T05:41:50;6.13;;;3.93;;
37483;SDS011;23337;52.212;9.926;2022-11-15T05:44:17;6.83;;;4.33;;
37483;SDS011;23337;52.212;9.926;2022-11-15T05:46:44;4.53;;;3.93;;
37483;SDS011;23337;52.212;9.926;2022-11-15T05:49:12;6.90;;;4.60;;
37483;SDS011;23337;52.212;9.926;2022-11-15T05:51:38;5.00;;;3.60;;
37483;SDS011;23337;52.212;9.926;2022-11-15T05:54:05;4.20;;;3.80;;
37483;SDS011;23337;52.212;9.926;2022-11-15T05:56:31;5.27;;;3.80;;
37483;SDS011;23337;52.212;9.926;2022-11-15T05:58:57;3.97;;;3.57;;
37483;SDS011;23337;52.212;9.926;2022-11-15T06:01:26;6.67;;;3.93;;
37483;SDS011;23337;52.212;9.926;2022-11-15T06:03:52;4.30;;;3.60;;
37483;SDS011;23337;52.212;9.926;2022-11-15T06:06:18;5.77;;;3.90;;
37483;SDS011;23337;52.212;9.926;2022-11-15T06:08:44;5.27;;;3.73;;
37483;SDS011;23337;52.212;9.926;2022-11-15T06:11:10;5.03;;;4.30;;
37483;SDS011;23337;52.212;9.926;2022-11-15T06:13:36;8.17;;;4.50;;
37483;SDS011;23337;52.212;9.926;2022-11-15T06:16:02;8.40;;;5.90;;
37483;SDS011;23337;52.212;9.926;2022-11-15T06:18:28;8.57;;;5.30;;
37483;SDS011;23337;52.212;9.926;2022-11-15T06:20:57;8.03;;;5.13;;
37483;SDS011;23337;52.212;9.926;2022-11-15T06:23:23;8.47;;;4.77;;
37483;SDS011;23337;52.212;9.926;2022-11-15T06:25:49;5.57;;;4.43;;
37483;SDS011;23337;52.212;9.926;2022-11-15T06:28:15;4.57;;;4.07;;
37483;SDS011;23337;52.212;9.926;2022-11-15T06:30:41;7.93;;;4.27;;
37483;SDS011;23337;52.212;9.926;2022-11-15T06:33:07;6.47;;;3.70;;
37483;SDS011;23337;52.212;9.926;2022-11-15T06:35:34;7.20;;;3.97;;
37483;SDS011;23337;52.212;9.926;2022-11-15T06:38:07;4.33;;;3.73;;
37483;SDS011;23337;52.212;9.926;2022-11-15T06:40:34;7.20;;;4.27;;
37483;SDS011;23337;52.212;9.926;2022-11-15T06:43:00;6.47;;;4.27;;
37483;SDS011;23337;52.212;9.926;2022-11-15T06:45:26;5.23;;;4.20;;
37483;SDS011;23337;52.212;9.926;2022-11-15T06:47:52;4.70;;;3.43;;
37483;SDS011;23337;52.212;9.926;2022-11-15T06:50:19;5.17;;;4.67;;
37483;SDS011;23337;52.212;9.926;2022-11-15T06:52:44;6.00;;;4.20;;
37483;SDS011;23337;52.212;9.926;2022-11-15T06:55:10;7.60;;;4.27;;
37483;SDS011;23337;52.212;9.926;2022-11-15T06:57:36;4.53;;;3.73;;
37483;SDS011;23337;52.212;9.926;2022-11-15T07:00:05;5.30;;;4.30;;
37483;SDS011;23337;52.212;9.926;2022-11-15T07:02:31;7.20;;;4.50;;
37483;SDS011;23337;52.212;9.926;2022-11-15T07:04:57;4.77;;;4.00;;
37483;SDS011;23337;52.212;9.926;2022-11-15T07:07:23;7.23;;;3.93;;
37483;SDS011;23337;52.212;9.926;2022-11-15T07:09:49;4.67;;;3.93;;
37483;SDS011;23337;52.212;9.926;2022-11-15T07:12:15;7.10;;;3.97;;
37483;SDS011;23337;52.212;9.926;2022-11-15T07:14:41;5.23;;;4.23;;
37483;SDS011;23337;52.212;9.926;2022-11-15T07:17:07;7.07;;;4.20;;
37483;SDS011;23337;52.212;9.926;2022-11-15T07:19:33;4.53;;;3.77;;
37483;SDS011;23337;52.212;9.926;2022-11-15T07:21:59;6.30;;;3.53;;
37483;SDS011;23337;52.212;9.926;2022-11-15T07:24:25;5.20;;;3.90;;
37483;SDS011;23337;52.212;9.926;2022-11-15T07:26:51;6.77;;;3.87;;
37483;SDS011;23337;52.212;9.926;2022-11-15T07:29:16;6.70;;;4.07;;
37483;SDS011;23337;52.212;9.926;2022-11-15T07:31:42;5.70;;;4.57;;
37483;SDS011;23337;52.212;9.926;2022-11-15T07:34:08;4.50;;;3.60;;
37483;SDS011;23337;52.212;9.926;2022-11-15T07:36:34;7.10;;;3.70;;
37483;SDS011;23337;52.212;9.926;2022-11-15T07:39:01;6.53;;;3.97;;
37483;SDS011;23337;52.212;9.926;2022-11-15T07:41:27;5.43;;;3.60;;
37483;SDS011;23337;52.212;9.926;2022-11-15T07:43:52;7.43;;;4.10;;
37483;SDS011;23337;52.212;9.926;2022-11-15T07:46:18;7.23;;;3.90;;
37483;SDS011;23337;52.212;9.926;2022-11-15T07:48:44;6.10;;;3.90;;
37483;SDS011;23337;52.212;9.926;2022-11-15T07:51:11;4.33;;;3.93;;
37483;SDS011;23337;52.212;9.926;2022-11-15T07:53:38;5.53;;;4.10;;
37483;SDS011;23337;52.212;9.926;2022-11-15T07:56:06;4.57;;;3.93;;
37483;SDS011;23337;52.212;9.926;2022-11-15T07:58:33;5.43;;;4.73;;
37483;SDS011;23337;52.212;9.926;2022-11-15T08:01:02;4.97;;;3.73;;
37483;SDS011;23337;52.212;9.926;2022-11-15T08:03:28;4.30;;;3.80;;
37483;SDS011;23337;52.212;9.926;2022-11-15T08:05:54;7.67;;;3.90;;
37483;SDS011;23337;52.212;9.926;2022-11-15T08:08:20;4.73;;;4.17;;
37483;SDS011;23337;52.212;9.926;2022-11-15T08:10:46;5.63;;;3.90;;
37483;SDS011;23337;52.212;9.926;2022-11-15T08:13:12;4.07;;;3.70;;
37483;SDS011;23337;52.212;9.926;2022-11-15T08:15:39;5.97;;;4.53;;
37483;SDS011;23337;52.212;9.926;2022-11-15T08:18:05;5.20;;;3.80;;
37483;SDS011;23337;52.212;9.926;2022-11-15T08:20:32;5.83;;;3.83;;
37483;SDS011;23337;52.212;9.926;2022-11-15T08:22:59;4.90;;;3.80;;
37483;SDS011;23337;52.212;9.926;2022-11-15T08:25:26;5.63;;;3.30;;
37483;SDS011;23337;52.212;9.926;2022-11-15T08:27:53;4.30;;;3.53;;
37483;SDS011;23337;52.212;9.926;2022-11-15T08:30:19;4.00;;;3.60;;
37483;SDS011;23337;52.212;9.926;2022-11-15T08:32:45;3.87;;;3.57;;
37483;SDS011;23337;52.212;9.926;2022-11-15T08:35:11;5.53;;;3.60;;
37483;SDS011;23337;52.212;9.926;2022-11-15T08:37:37;6.20;;;3.87;;
37483;SDS011;23337;52.212;9.926;2022-11-15T08:40:04;4.53;;;3.93;;
37483;SDS011;23337;52.212;9.926;2022-11-15T08:42:30;5.00;;;3.50;;
37483;SDS011;23337;52.212;9.926;2022-11-15T08:44:56;4.37;;;3.50;;
37483;SDS011;23337;52.212;9.926;2022-11-15T08:47:22;5.30;;;3.53;;
37483;SDS011;23337;52.212;9.926;2022-11-15T08:49:49;6.80;;;3.97;;
37483;SDS011;23337;52.212;9.926;2022-11-15T08:52:15;5.23;;;3.63;;
37483;SDS011;23337;52.212;9.926;2022-11-15T08:54:40;5.47;;;3.43;;
37483;SDS011;23337;52.212;9.926;2022-11-15T08:57:06;4.20;;;3.10;;
37483;SDS011;23337;52.212;9.926;2022-11-15T08:59:34;4.90;;;3.40;;
37483;SDS011;23337;52.212;9.926;2022-11-15T09:02:00;4.43;;;3.27;;
37483;SDS011;23337;52.212;9.926;2022-11-15T09:04:27;5.80;;;3.87;;
37483;SDS011;23337;52.212;9.926;2022-11-15T09:06:53;3.63;;;3.23;;
37483;SDS011;23337;52.212;9.926;2022-11-15T09:09:19;3.87;;;3.10;;
37483;SDS011;23337;52.212;9.926;2022-11-15T09:11:45;4.40;;;3.30;;
37483;SDS011;23337;52.212;9.926;2022-11-15T09:14:11;4.40;;;3.43;;
37483;SDS011;23337;52.212;9.926;2022-11-15T09:16:38;5.80;;;3.27;;
37483;SDS011;23337;52.212;9.926;2022-11-15T09:19:04;4.17;;;3.40;;
37483;SDS011;23337;52.212;9.926;2022-11-15T09:21:30;5.53;;;4.07;;
37483;SDS011;23337;52.212;9.926;2022-11-15T09:23:56;5.03;;;2.83;;
37483;SDS011;23337;52.212;9.926;2022-11-15T09:26:22;4.00;;;3.07;;
37483;SDS011;23337;52.212;9.926;2022-11-15T09:28:48;3.30;;;3.00;;
37483;SDS011;23337;52.212;9.926;2022-11-15T09:31:15;5.30;;;2.97;;
37483;SDS011;23337;52.212;9.926;2022-11-15T09:33:43;3.27;;;2.87;;
37483;SDS011;23337;52.212;9.926;2022-11-15T09:36:09;5.20;;;2.90;;
37483;SDS011;23337;52.212;9.926;2022-11-15T09:38:36;5.67;;;3.33;;
37483;SDS011;23337;52.212;9.926;2022-11-15T09:43:47;4.70;;;3.10;;
37483;SDS011;23337;52.212;9.926;2022-11-15T09:48:57;4.83;;;3.03;;
37483;SDS011;23337;52.212;9.926;2022-11-15T09:51:34;5.60;;;3.53;;
37483;SDS011;23337;52.212;9.926;2022-11-15T09:54:03;4.00;;;3.10;;
37483;SDS011;23337;52.212;9.926;2022-11-15T09:56:31;3.13;;;2.83;;
37483;SDS011;23337;52.212;9.926;2022-11-15T09:59:00;3.83;;;2.50;;
37483;SDS011;23337;52.212;9.926;2022-11-15T10:01:43;3.33;;;3.03;;
37483;SDS011;23337;52.212;9.926;2022-11-15T10:04:10;3.20;;;2.90;;
37483;SDS011;23337;52.212;9.926;2022-11-15T10:06:38;4.03;;;3.20;;
37483;SDS011;23337;52.212;9.926;2022-11-15T10:09:15;4.17;;;2.63;;
37483;SDS011;23337;52.212;9.926;2022-11-15T10:11:42;5.37;;;2.83;;
37483;SDS011;23337;52.212;9.926;2022-11-15T10:14:15;5.20;;;3.37;;
37483;SDS011;23337;52.212;9.926;2022-11-15T10:16:51;4.03;;;2.80;;
37483;SDS011;23337;52.212;9.926;2022-11-15T10:19:38;3.43;;;2.70;;
37483;SDS011;23337;52.212;9.926;2022-11-15T10:22:12;5.80;;;3.20;;
37483;SDS011;23337;52.212;9.926;2022-11-15T10:24:43;4.97;;;2.80;;
37483;SDS011;23337;52.212;9.926;2022-11-15T10:27:10;3.87;;;2.67;;
37483;SDS011;23337;52.212;9.926;2022-11-15T10:29:40;5.13;;;3.27;;
37483;SDS011;23337;52.212;9.926;2022-11-15T10:32:08;4.13;;;2.73;;
37483;SDS011;23337;52.212;9.926;2022-11-15T10:34:35;4.20;;;2.63;;
37483;SDS011;23337;52.212;9.926;2022-11-15T10:37:01;3.57;;;2.73;;
37483;SDS011;23337;52.212;9.926;2022-11-15T10:39:27;5.33;;;3.03;;
37483;SDS011;23337;52.212;9.926;2022-11-15T10:41:54;3.70;;;2.33;;
37483;SDS011;23337;52.212;9.926;2022-11-15T10:44:24;2.83;;;2.17;;
37483;SDS011;23337;52.212;9.926;2022-11-15T10:49:21;5.20;;;3.03;;
37483;SDS011;23337;52.212;9.926;2022-11-15T10:54:27;5.03;;;2.93;;
37483;SDS011;23337;52.212;9.926;2022-11-15T10:56:55;2.83;;;2.50;;
37483;SDS011;23337;52.212;9.926;2022-11-15T10:59:31;4.23;;;2.80;;
37483;SDS011;23337;52.212;9.926;2022-11-15T11:01:58;2.60;;;2.40;;
37483;SDS011;23337;52.212;9.926;2022-11-15T11:04:24;3.63;;;2.20;;
37483;SDS011;23337;52.212;9.926;2022-11-15T11:06:51;3.47;;;2.60;;
37483;SDS011;23337;52.212;9.926;2022-11-15T11:09:28;5.60;;;2.87;;
37483;SDS011;23337;52.212;9.926;2022-11-15T11:11:56;3.50;;;3.10;;
37483;SDS011;23337;52.212;9.926;2022-11-15T11:14:24;4.77;;;2.93;;
37483;SDS011;23337;52.212;9.926;2022-11-15T11:25:00;4.70;;;2.80;;
37483;SDS011;23337;52.212;9.926;2022-11-15T11:27:47;4.80;;;2.67;;
37483;SDS011;23337;52.212;9.926;2022-11-15T11:30:19;3.13;;;2.70;;
37483;SDS011;23337;52.212;9.926;2022-11-15T11:35:20;4.43;;;3.03;;
37483;SDS011;23337;52.212;9.926;2022-11-15T11:43:23;4.53;;;3.17;;
37483;SDS011;23337;52.212;9.926;2022-11-15T11:48:38;5.50;;;2.80;;
37483;SDS011;23337;52.212;9.926;2022-11-15T11:51:09;3.57;;;2.70;;
37483;SDS011;23337;52.212;9.926;2022-11-15T11:53:47;4.57;;;3.13;;
37483;SDS011;23337;52.212;9.926;2022-11-15T11:56:19;5.20;;;2.73;;
37483;SDS011;23337;52.212;9.926;2022-11-15T11:58:47;4.27;;;2.50;;
37483;SDS011;23337;52.212;9.926;2022-11-15T12:01:15;3.50;;;2.70;;
37483;SDS011;23337;52.212;9.926;2022-11-15T12:03:43;4.17;;;2.47;;
37483;SDS011;23337;52.212;9.926;2022-11-15T12:06:36;5.17;;;3.00;;
37483;SDS011;23337;52.212;9.926;2022-11-15T12:14:46;5.23;;;3.90;;
37483;SDS011;23337;52.212;9.926;2022-11-15T12:17:12;5.23;;;2.87;;
37483;SDS011;23337;52.212;9.926;2022-11-15T12:19:39;4.30;;;2.93;;
37483;SDS011;23337;52.212;9.926;2022-11-15T12:22:12;3.67;;;2.97;;
37483;SDS011;23337;52.212;9.926;2022-11-15T12:24:55;6.07;;;3.20;;
37483;SDS011;23337;52.212;9.926;2022-11-15T12:30:02;3.07;;;2.77;;
37483;SDS011;23337;52.212;9.926;2022-11-15T12:32:36;3.73;;;2.73;;
37483;SDS011;23337;52.212;9.926;2022-11-15T12:35:03;4.73;;;3.10;;
37483;SDS011;23337;52.212;9.926;2022-11-15T12:40:16;3.30;;;3.00;;
37483;SDS011;23337;52.212;9.926;2022-11-15T12:47:56;5.17;;;3.03;;
37483;SDS011;23337;52.212;9.926;2022-11-15T13:01:07;4.20;;;2.83;;
37483;SDS011;23337;52.212;9.926;2022-11-15T13:03:33;3.00;;;2.70;;
37483;SDS011;23337;52.212;9.926;2022-11-15T13:06:00;6.47;;;3.10;;
37483;SDS011;23337;52.212;9.926;2022-11-15T13:08:36;4.20;;;3.10;;
37483;SDS011;23337;52.212;9.926;2022-11-15T13:13:47;3.47;;;2.43;;
37483;SDS011;23337;52.212;9.926;2022-11-15T13:16:17;3.20;;;2.50;;
37483;SDS011;23337;52.212;9.926;2022-11-15T13:18:52;3.23;;;2.63;;
37483;SDS011;23337;52.212;9.926;2022-11-15T13:21:21;4.60;;;2.43;;
37483;SDS011;23337;52.212;9.926;2022-11-15T13:24:10;4.03;;;2.73;;
37483;SDS011;23337;52.212;9.926;2022-11-15T13:26:37;3.40;;;2.47;;
37483;SDS011;23337;52.212;9.926;2022-11-15T13:29:04;4.73;;;2.60;;
37483;SDS011;23337;52.212;9.926;2022-11-15T13:31:37;6.63;;;2.97;;
37483;SDS011;23337;52.212;9.926;2022-11-15T13:36:46;4.07;;;2.50;;
37483;SDS011;23337;52.212;9.926;2022-11-15T13:39:23;3.97;;;2.50;;
37483;SDS011;23337;52.212;9.926;2022-11-15T13:41:50;3.53;;;2.37;;
37483;SDS011;23337;52.212;9.926;2022-11-15T13:44:21;2.60;;;2.40;;
37483;SDS011;23337;52.212;9.926;2022-11-15T13:46:47;3.17;;;2.23;;
37483;SDS011;23337;52.212;9.926;2022-11-15T13:49:13;2.37;;;2.10;;
37483;SDS011;23337;52.212;9.926;2022-11-15T13:51:49;4.23;;;2.60;;
37483;SDS011;23337;52.212;9.926;2022-11-15T13:54:18;2.43;;;2.13;;
37483;SDS011;23337;52.212;9.926;2022-11-15T13:56:49;3.80;;;2.43;;
37483;SDS011;23337;52.212;9.926;2022-11-15T14:01:47;6.13;;;3.03;;
37483;SDS011;23337;52.212;9.926;2022-11-15T14:04:13;4.97;;;2.60;;
37483;SDS011;23337;52.212;9.926;2022-11-15T14:06:47;3.57;;;2.60;;
37483;SDS011;23337;52.212;9.926;2022-11-15T14:09:18;3.57;;;2.63;;
37483;SDS011;23337;52.212;9.926;2022-11-15T14:11:53;3.03;;;2.57;;
37483;SDS011;23337;52.212;9.926;2022-11-15T14:14:20;3.87;;;2.53;;
37483;SDS011;23337;52.212;9.926;2022-11-15T14:16:51;6.20;;;2.87;;
37483;SDS011;23337;52.212;9.926;2022-11-15T14:24:31;3.13;;;2.47;;
37483;SDS011;23337;52.212;9.926;2022-11-15T14:26:57;3.23;;;2.80;;
37483;SDS011;23337;52.212;9.926;2022-11-15T14:29:40;3.53;;;2.43;;
37483;SDS011;23337;52.212;9.926;2022-11-15T14:32:12;2.90;;;2.40;;
37483;SDS011;23337;52.212;9.926;2022-11-15T14:34:38;4.40;;;2.63;;
37483;SDS011;23337;52.212;9.926;2022-11-15T14:37:04;2.57;;;2.10;;
37483;SDS011;23337;52.212;9.926;2022-11-15T14:39:30;4.27;;;2.30;;
37483;SDS011;23337;52.212;9.926;2022-11-15T14:41:56;2.30;;;1.83;;
37483;SDS011;23337;52.212;9.926;2022-11-15T14:44:22;5.10;;;2.53;;
37483;SDS011;23337;52.212;9.926;2022-11-15T14:46:48;3.57;;;2.40;;
37483;SDS011;23337;52.212;9.926;2022-11-15T14:49:14;3.57;;;2.73;;
37483;SDS011;23337;52.212;9.926;2022-11-15T14:51:41;3.73;;;2.63;;
37483;SDS011;23337;52.212;9.926;2022-11-15T14:54:09;4.80;;;2.67;;
37483;SDS011;23337;52.212;9.926;2022-11-15T14:56:35;3.63;;;3.20;;
37483;SDS011;23337;52.212;9.926;2022-11-15T14:59:01;4.83;;;3.10;;
37483;SDS011;23337;52.212;9.926;2022-11-15T15:01:27;4.10;;;2.67;;
37483;SDS011;23337;52.212;9.926;2022-11-15T15:03:53;2.60;;;2.20;;
37483;SDS011;23337;52.212;9.926;2022-11-15T15:06:22;3.37;;;2.27;;
37483;SDS011;23337;52.212;9.926;2022-11-15T15:08:48;3.40;;;2.10;;
37483;SDS011;23337;52.212;9.926;2022-11-15T15:11:18;4.87;;;2.43;;
37483;SDS011;23337;52.212;9.926;2022-11-15T15:13:46;2.87;;;2.60;;
37483;SDS011;23337;52.212;9.926;2022-11-15T15:16:12;2.80;;;2.37;;
37483;SDS011;23337;52.212;9.926;2022-11-15T15:18:38;3.13;;;2.83;;
37483;SDS011;23337;52.212;9.926;2022-11-15T15:21:04;15.00;;;2.83;;
37483;SDS011;23337;52.212;9.926;2022-11-15T15:23:40;5.23;;;2.40;;
37483;SDS011;23337;52.212;9.926;2022-11-15T15:26:06;3.87;;;2.77;;
37483;SDS011;23337;52.212;9.926;2022-11-15T15:28:32;3.80;;;2.37;;
37483;SDS011;23337;52.212;9.926;2022-11-15T15:30:59;3.20;;;2.27;;
37483;SDS011;23337;52.212;9.926;2022-11-15T15:33:25;4.93;;;2.47;;
37483;SDS011;23337;52.212;9.926;2022-11-15T15:35:51;4.33;;;2.10;;
37483;SDS011;23337;52.212;9.926;2022-11-15T15:38:17;2.47;;;2.27;;
37483;SDS011;23337;52.212;9.926;2022-11-15T15:40:43;3.67;;;2.10;;
37483;SDS011;23337;52.212;9.926;2022-11-15T15:43:09;4.90;;;3.00;;
37483;SDS011;23337;52.212;9.926;2022-11-15T15:45:36;2.70;;;2.23;;
37483;SDS011;23337;52.212;9.926;2022-11-15T15:48:04;3.27;;;2.33;;
37483;SDS011;23337;52.212;9.926;2022-11-15T15:50:33;6.27;;;2.37;;
37483;SDS011;23337;52.212;9.926;2022-11-15T15:53:00;4.37;;;2.70;;
37483;SDS011;23337;52.212;9.926;2022-11-15T15:55:26;3.10;;;2.60;;
37483;SDS011;23337;52.212;9.926;2022-11-15T15:57:52;3.30;;;2.50;;
37483;SDS011;23337;52.212;9.926;2022-11-15T16:00:19;4.13;;;2.83;;
37483;SDS011;23337;52.212;9.926;2022-11-15T16:02:45;2.70;;;2.50;;
37483;SDS011;23337;52.212;9.926;2022-11-15T16:05:11;5.07;;;3.20;;
37483;SDS011;23337;52.212;9.926;2022-11-15T16:07:38;6.90;;;3.03;;
37483;SDS011;23337;52.212;9.926;2022-11-15T16:12:52;4.20;;;2.93;;
37483;SDS011;23337;52.212;9.926;2022-11-15T16:15:19;3.90;;;3.50;;
37483;SDS011;23337;52.212;9.926;2022-11-15T16:17:53;6.00;;;4.47;;
37483;SDS011;23337;52.212;9.926;2022-11-15T16:22:53;6.80;;;5.13;;
37483;SDS011;23337;52.212;9.926;2022-11-15T16:25:19;8.30;;;5.30;;
37483;SDS011;23337;52.212;9.926;2022-11-15T16:27:45;4.90;;;4.40;;